Radiance Of The Seas — C6SE7 — position and weather

sailwx.info

Track history (hours):
 
Tides and Currents Weather Stations Pressure Air Temp Water Temp Dewpoint Dewpoint Depression Visibility Wind Speed Wind Dir Waves Ship Positions

Radiance Of The Seas

Operator: Royal Caribbean Cruises Ltd

Last reported at 2017-Mar-25 17:00 UTC. Time now 2017-Mar-27 06:51 UTC.
Position S 42°18' E 164°06'.

Type: Passenger vessel. MMSI: 311319000.

Barometer 1012.0 mb
Air temperature 13.2 ° C
Water temperature 16.4 ° C

Date/timePositionNaut miles runAvg speedWind from/ knotsBaromVisibWave heightAir tempDewpointWater temp
2017-Mar-25 17:00S 42°18' E 164°06'1817.9 1012.0 13.2 16.4
2017-Mar-25 16:00S 42°30' E 164°24'   190 / 201012.0 13.0 16.5
2017-Mar-19 06:33S 37°29' E 176°25'1514.8
2017-Mar-19 05:33S 37°37' E 176°10'2 1.5
2017-Mar-19 04:33S 37°39' E 176°11'0 0.0
2017-Mar-19 03:33S 37°39' E 176°11'0 0.0
2017-Mar-19 02:33S 37°39' E 176°11'0 0.0
2017-Mar-19 01:33S 37°39' E 176°11'0 0.0
2017-Mar-19 00:33S 37°39' E 176°11'0 0.0
2017-Mar-18 23:33S 37°39' E 176°11'0 0.0
2017-Mar-18 22:33S 37°39' E 176°11'0 0.0
2017-Mar-18 21:33S 37°39' E 176°11'0 0.0
2017-Mar-18 20:33S 37°39' E 176°11'0 0.0
2017-Mar-18 19:33S 37°39' E 176°11'0 0.0
2017-Mar-18 18:33S 37°39' E 176°11'1 1.4
2017-Mar-18 17:32S 37°37' E 176°10'1010.2
2017-Mar-18 16:31S 37°27' E 176°12'77 9.3
2017-Mar-18 08:12S 36°26' E 175°13'711.6
2017-Mar-18 07:34S 36°31' E 175°06'1211.6
2017-Mar-18 06:33S 36°39' E 174°56'1110.8
2017-Mar-18 05:33S 36°48' E 174°49'3 3.3
2017-Mar-18 04:30S 36°51' E 174°46'0 0.0
2017-Mar-18 03:30S 36°51' E 174°46'0 0.0
2017-Mar-18 02:30S 36°51' E 174°46'0 0.0
2017-Mar-18 01:30S 36°51' E 174°46'0 0.0
2017-Mar-18 00:30S 36°51' E 174°46'0 0.0
2017-Mar-17 23:30S 36°51' E 174°46'0 0.0
2017-Mar-17 22:30S 36°51' E 174°46'0 0.0
2017-Mar-17 21:30S 36°51' E 174°46'0 0.0
2017-Mar-17 20:30S 36°51' E 174°46'0 0.0
2017-Mar-17 19:30S 36°51' E 174°46'0 0.0
2017-Mar-17 18:30S 36°51' E 174°46'0 0.1
2017-Mar-17 17:30S 36°50' E 174°46'7 7.3
2017-Mar-17 16:33S 36°44' E 174°50'1414.3
2017-Mar-17 15:34S 36°32' E 174°59'1515.1
2017-Mar-17 14:34S 36°17' E 174°57'  
Track history (hours):
 
Tides and Currents Weather Stations Pressure Air Temp Water Temp Dewpoint Dewpoint Depression Visibility Wind Speed Wind Dir Waves Ship Positions

Radiance Of The Seas

Operator: Royal Caribbean Cruises Ltd

Last reported at 2017-Mar-25 17:00 UTC. Time now 2017-Mar-27 06:51 UTC.
Position S 42°18' E 164°06'.

Type: Passenger vessel. MMSI: 311319000.

Barometer 1012.0 mb
Air temperature 13.2 ° C
Water temperature 16.4 ° C

Date/timePositionNaut miles runAvg speedWind from/ knotsBaromVisibWave heightAir tempDewpointWater temp
2017-Mar-25 17:00S 42°18' E 164°06'1817.9 1012.0 13.2 16.4
2017-Mar-25 16:00S 42°30' E 164°24'   190 / 201012.0 13.0 16.5
2017-Mar-19 06:33S 37°29' E 176°25'1514.8
2017-Mar-19 05:33S 37°37' E 176°10'2 1.5
2017-Mar-19 04:33S 37°39' E 176°11'0 0.0
2017-Mar-19 03:33S 37°39' E 176°11'0 0.0
2017-Mar-19 02:33S 37°39' E 176°11'0 0.0
2017-Mar-19 01:33S 37°39' E 176°11'0 0.0
2017-Mar-19 00:33S 37°39' E 176°11'0 0.0
2017-Mar-18 23:33S 37°39' E 176°11'0 0.0
2017-Mar-18 22:33S 37°39' E 176°11'0 0.0
2017-Mar-18 21:33S 37°39' E 176°11'0 0.0
2017-Mar-18 20:33S 37°39' E 176°11'0 0.0
2017-Mar-18 19:33S 37°39' E 176°11'0 0.0
2017-Mar-18 18:33S 37°39' E 176°11'1 1.4
2017-Mar-18 17:32S 37°37' E 176°10'1010.2
2017-Mar-18 16:31S 37°27' E 176°12'77 9.3
2017-Mar-18 08:12S 36°26' E 175°13'711.6
2017-Mar-18 07:34S 36°31' E 175°06'1211.6
2017-Mar-18 06:33S 36°39' E 174°56'1110.8
2017-Mar-18 05:33S 36°48' E 174°49'3 3.3
2017-Mar-18 04:30S 36°51' E 174°46'0 0.0
2017-Mar-18 03:30S 36°51' E 174°46'0 0.0
2017-Mar-18 02:30S 36°51' E 174°46'0 0.0
2017-Mar-18 01:30S 36°51' E 174°46'0 0.0
2017-Mar-18 00:30S 36°51' E 174°46'0 0.0
2017-Mar-17 23:30S 36°51' E 174°46'0 0.0
2017-Mar-17 22:30S 36°51' E 174°46'0 0.0
2017-Mar-17 21:30S 36°51' E 174°46'0 0.0
2017-Mar-17 20:30S 36°51' E 174°46'0 0.0
2017-Mar-17 19:30S 36°51' E 174°46'0 0.0
2017-Mar-17 18:30S 36°51' E 174°46'0 0.1
2017-Mar-17 17:30S 36°50' E 174°46'7 7.3
2017-Mar-17 16:33S 36°44' E 174°50'1414.3
2017-Mar-17 15:34S 36°32' E 174°59'1515.1
2017-Mar-17 14:34S 36°17' E 174°57'  

Dump ship's entire track history